Time;durP1;ratioP1;P1;durP2;ratioP2;P2;SDS_P1;SDS_P2;PMS_P1;PMS_P2;Temp;Humidity;BMP_temperature;BMP_pressure;BME280_temperature;BME280_humidity;BME280_pressure;Samples;Min_cycle;Max_cycle;Signal;HPM_P1;HPM_P2
2023/08/02 00:01:32;;;;;;;5.20;1.30;;;;;;;17.28;99.13;99637.78;5034527;28;20435;-68
2023/08/02 00:03:59;;;;;;;7.47;1.37;;;;;;;17.23;98.61;99632.63;5035280;28;20471;-68
2023/08/02 00:06:28;;;;;;;5.23;1.20;;;;;;;17.20;98.55;99636.09;5035287;28;20886;-68
2023/08/02 00:08:55;;;;;;;5.73;1.70;;;;;;;17.11;98.35;99636.34;5034727;28;20990;-68
2023/08/02 00:11:23;;;;;;;5.97;1.60;;;;;;;17.11;100.00;99630.88;5034755;28;20994;-68
2023/08/02 00:13:49;;;;;;;5.83;1.73;;;;;;;17.11;100.00;99628.16;5035065;28;20918;-68
2023/08/02 00:16:16;;;;;;;13.00;1.10;;;;;;;17.06;100.00;99631.19;5035230;28;20550;-68
2023/08/02 00:18:43;;;;;;;7.00;1.90;;;;;;;17.08;100.00;99628.88;5035334;28;20442;-67
2023/08/02 00:21:09;;;;;;;5.77;1.50;;;;;;;17.10;100.00;99626.56;5034570;28;20513;-67
2023/08/02 00:23:36;;;;;;;5.83;1.60;;;;;;;17.13;100.00;99639.53;5035473;28;20451;-67
2023/08/02 00:26:02;;;;;;;5.83;1.50;;;;;;;17.17;100.00;99636.81;5034827;28;20458;-67
2023/08/02 00:28:30;;;;;;;7.07;1.77;;;;;;;17.12;100.00;99631.66;5034977;28;20499;-67
2023/08/02 00:30:57;;;;;;;8.33;2.00;;;;;;;17.12;98.64;99637.13;5034742;28;20522;-67
2023/08/02 00:33:24;;;;;;;6.70;1.37;;;;;;;17.07;98.60;99632.00;5035142;28;20485;-67
2023/08/02 00:35:50;;;;;;;5.87;1.23;;;;;;;17.07;99.25;99640.19;5034640;28;20460;-68
2023/08/02 00:38:17;;;;;;;6.50;1.20;;;;;;;17.06;98.88;99644.09;5034706;28;20450;-68
2023/08/02 00:40:44;;;;;;;6.27;1.70;;;;;;;17.02;99.04;99644.03;5035201;28;20445;-67
2023/08/02 00:43:10;;;;;;;5.30;1.20;;;;;;;17.06;97.69;99646.84;5034630;28;20509;-67
2023/08/02 00:45:38;;;;;;;5.27;1.30;;;;;;;17.02;97.62;99648.72;5034387;28;20455;-67
2023/08/02 00:48:05;;;;;;;6.47;1.37;;;;;;;17.04;97.11;99651.88;5034371;28;20453;-68
2023/08/02 00:50:34;;;;;;;6.07;1.30;;;;;;;17.07;97.28;99654.66;5034339;28;20522;-68
2023/08/02 00:53:01;;;;;;;6.20;1.90;;;;;;;17.11;97.78;99652.00;5034174;28;20569;-68
2023/08/02 00:55:28;;;;;;;6.13;1.43;;;;;;;17.04;96.60;99647.19;5034487;28;20463;-67
2023/08/02 00:57:56;;;;;;;6.30;1.70;;;;;;;17.06;96.38;99649.56;5035133;28;20796;-68
2023/08/02 01:00:23;;;;;;;6.83;1.50;;;;;;;17.06;96.86;99646.84;5034538;28;20525;-68
2023/08/02 01:02:51;;;;;;;4.97;1.30;;;;;;;17.08;96.34;99648.03;5034209;28;20897;-68
2023/08/02 01:05:19;;;;;;;6.47;1.50;;;;;;;17.10;96.17;99650.41;5033751;28;20459;-68
2023/08/02 01:07:50;;;;;;;5.47;1.20;;;;;;;17.13;94.34;99655.13;5033642;28;20447;-68
2023/08/02 01:10:23;;;;;;;5.07;1.03;;;;;;;17.17;94.32;99652.44;5034018;28;20506;-68
2023/08/02 01:12:51;;;;;;;6.23;1.10;;;;;;;17.13;93.89;99647.75;5034119;28;20510;-68
2023/08/02 01:15:19;;;;;;;5.40;1.20;;;;;;;17.15;94.38;99647.34;5033962;28;20458;-68
2023/08/02 01:17:47;;;;;;;5.50;1.20;;;;;;;17.17;95.15;99644.25;5034618;28;20549;-68
2023/08/02 01:20:15;;;;;;;5.33;1.37;;;;;;;17.21;93.66;99643.13;5033543;28;21014;-68
2023/08/02 01:22:42;;;;;;;6.00;1.20;;;;;;;17.27;93.58;99649.09;5033723;28;20531;-68
2023/08/02 01:25:09;;;;;;;5.63;1.20;;;;;;;17.27;94.12;99660.06;5033720;28;20493;-68
2023/08/02 01:27:40;;;;;;;6.07;1.20;;;;;;;17.27;93.60;99657.31;5033948;28;20431;-68
2023/08/02 01:30:12;;;;;;;5.53;1.20;;;;;;;17.28;92.86;99656.94;5033806;28;20878;-68
2023/08/02 01:32:38;;;;;;;6.10;1.20;;;;;;;17.28;93.58;99656.94;5034016;28;20549;-68
2023/08/02 01:35:06;;;;;;;5.17;1.00;;;;;;;17.31;92.96;99655.41;5033281;28;20870;-68
2023/08/02 01:37:35;;;;;;;6.03;1.60;;;;;;;17.34;92.89;99649.97;5033291;28;20475;-67
2023/08/02 01:40:02;;;;;;;5.70;1.37;;;;;;;17.32;94.06;99646.84;5033646;28;20882;-67
2023/08/02 01:42:28;;;;;;;5.00;1.20;;;;;;;17.30;92.90;99642.88;5033567;28;20527;-67
2023/08/02 01:44:55;;;;;;;6.00;1.67;;;;;;;17.29;92.33;99644.81;5033651;28;20483;-67
2023/08/02 01:47:21;;;;;;;7.57;2.07;;;;;;;17.32;92.37;99640.56;5033619;28;20518;-68
2023/08/02 01:49:48;;;;;;;6.40;1.57;;;;;;;17.32;92.33;99649.56;5033471;28;20446;-67
2023/08/02 01:52:15;;;;;;;5.80;1.40;;;;;;;17.32;91.86;99641.34;5033429;28;20525;-67
2023/08/02 01:54:43;;;;;;;5.00;1.07;;;;;;;17.28;92.90;99642.47;5033616;28;20484;-67
2023/08/02 01:57:09;;;;;;;10.43;1.50;;;;;;;17.30;92.00;99643.66;5033732;28;20467;-67
2023/08/02 01:59:36;;;;;;;5.47;1.27;;;;;;;17.31;91.92;99647.19;5033414;28;20525;-67
2023/08/02 02:02:03;;;;;;;5.67;1.10;;;;;;;17.27;91.59;99644.41;5033408;28;20439;-67
2023/08/02 02:04:29;;;;;;;4.80;1.10;;;;;;;17.27;92.09;99649.91;5033259;28;20439;-68
2023/08/02 02:06:56;;;;;;;5.33;1.10;;;;;;;17.27;93.27;99651.84;5033374;28;20447;-68
2023/08/02 02:09:23;;;;;;;9.30;1.30;;;;;;;17.27;94.22;99649.09;5063453;22;20533;-69
2023/08/02 02:11:51;;;;;;;5.60;1.20;;;;;;;17.28;94.86;99648.72;5059825;28;20448;-69
2023/08/02 02:14:17;;;;;;;5.17;1.30;;;;;;;17.27;94.36;99649.91;5057916;28;20517;-69
2023/08/02 02:16:44;;;;;;;5.60;1.57;;;;;;;17.28;94.98;99637.78;5057284;28;20490;-69
2023/08/02 02:19:10;;;;;;;5.63;1.73;;;;;;;17.25;94.19;99638.50;5059206;28;20466;-69
2023/08/02 02:21:37;;;;;;;5.00;1.20;;;;;;;17.20;95.44;99638.81;5057494;28;20524;-69
2023/08/02 02:24:04;;;;;;;6.30;1.50;;;;;;;17.21;94.12;99634.94;5057515;28;20449;-69
2023/08/02 02:26:31;;;;;;;5.83;1.50;;;;;;;17.21;94.07;99640.41;5064238;28;20890;-69
2023/08/02 02:28:59;;;;;;;12.13;1.37;;;;;;;17.24;94.81;99636.94;5062926;28;20430;-69
2023/08/02 02:31:26;;;;;;;5.87;1.63;;;;;;;17.25;94.65;99627.56;5064246;28;20442;-69
2023/08/02 02:33:52;;;;;;;5.27;1.40;;;;;;;17.28;94.96;99635.03;5064358;28;20484;-69
2023/08/02 02:36:19;;;;;;;7.07;1.60;;;;;;;17.27;94.91;99638.94;5063246;28;20457;-69
2023/08/02 02:38:45;;;;;;;5.70;1.63;;;;;;;17.28;94.34;99640.50;5060627;28;20520;-68
2023/08/02 02:41:12;;;;;;;5.77;1.13;;;;;;;17.26;94.09;99636.56;5062138;28;20468;-69
2023/08/02 02:43:39;;;;;;;6.97;1.50;;;;;;;17.22;93.96;99633.78;5063259;28;20933;-69
2023/08/02 02:46:06;;;;;;;5.10;1.23;;;;;;;17.21;94.64;99647.81;5062097;28;20523;-69
2023/08/02 02:48:33;;;;;;;7.80;1.77;;;;;;;17.15;95.40;99644.63;5060845;28;20776;-68
2023/08/02 02:51:00;;;;;;;5.83;1.57;;;;;;;17.14;96.76;99623.91;5061483;28;20446;-69
2023/08/02 02:53:26;;;;;;;5.27;1.70;;;;;;;17.05;96.74;99626.91;5059935;28;20573;-69
2023/08/02 02:55:53;;;;;;;4.70;1.00;;;;;;;17.02;96.48;99632.31;5059667;28;20545;-69
2023/08/02 02:58:19;;;;;;;10.57;1.77;;;;;;;16.96;95.91;99633.78;5060209;28;20959;-68
2023/08/02 03:00:46;;;;;;;5.43;1.23;;;;;;;16.94;96.63;99630.63;5061124;28;20525;-68
2023/08/02 03:03:14;;;;;;;7.97;1.43;;;;;;;16.87;97.36;99626.63;5060447;28;20514;-69
2023/08/02 03:05:41;;;;;;;4.90;1.17;;;;;;;16.80;97.39;99640.16;5060215;28;20492;-69
2023/08/02 03:08:07;;;;;;;6.07;1.67;;;;;;;16.81;96.46;99636.28;5060923;28;20450;-69
2023/08/02 03:10:34;;;;;;;6.07;1.40;;;;;;;16.78;97.72;99634.28;5061491;28;20430;-69
2023/08/02 03:13:00;;;;;;;6.97;1.60;;;;;;;16.69;98.92;99635.63;5061471;28;20482;-69
2023/08/02 03:15:27;;;;;;;6.23;1.20;;;;;;;16.65;99.02;99630.91;5060719;28;21053;-69
2023/08/02 03:17:54;;;;;;;6.60;1.40;;;;;;;16.64;99.87;99634.00;5061446;28;20446;-68
2023/08/02 03:20:22;;;;;;;6.13;1.43;;;;;;;16.59;100.00;99629.63;5060817;28;20477;-68
2023/08/02 03:22:48;;;;;;;5.40;1.43;;;;;;;16.59;100.00;99626.91;5061768;28;20458;-68
2023/08/02 03:25:15;;;;;;;6.83;1.80;;;;;;;16.58;100.00;99640.94;5061311;28;20494;-69
2023/08/02 03:27:42;;;;;;;7.23;1.80;;;;;;;16.52;100.00;99635.00;5059695;28;20442;-68
2023/08/02 03:30:09;;;;;;;6.40;1.90;;;;;;;16.52;99.35;99632.25;5065369;28;20470;-69
2023/08/02 03:32:36;;;;;;;5.00;1.30;;;;;;;16.53;100.00;99638.50;5060908;28;20565;-69
2023/08/02 03:35:02;;;;;;;6.27;1.03;;;;;;;16.54;100.00;99640.88;5058542;28;20458;-68
2023/08/02 03:37:30;;;;;;;4.73;1.00;;;;;;;16.56;99.99;99641.31;5057731;28;20500;-69
2023/08/02 03:39:57;;;;;;;6.47;1.50;;;;;;;16.59;99.44;99645.25;5059288;28;20525;-69
2023/08/02 03:42:23;;;;;;;5.60;1.33;;;;;;;16.59;99.29;99643.31;5058379;28;20464;-69
2023/08/02 03:44:50;;;;;;;5.40;1.20;;;;;;;16.59;98.91;99646.03;5057538;28;20543;-67
2023/08/02 03:47:17;;;;;;;6.23;1.63;;;;;;;16.57;98.85;99644.84;5060009;28;20442;-67
2023/08/02 03:49:44;;;;;;;7.00;1.80;;;;;;;16.62;98.74;99634.38;5057188;28;20537;-68
2023/08/02 03:52:10;;;;;;;7.73;1.00;;;;;;;16.62;98.17;99639.84;5058135;28;20525;-69
2023/08/02 03:54:38;;;;;;;6.90;1.70;;;;;;;16.67;99.36;99637.97;5058088;28;20450;-69
2023/08/02 03:57:07;;;;;;;8.90;2.00;;;;;;;16.72;99.83;99643.94;5057830;28;21021;-69
2023/08/02 03:59:33;;;;;;;6.80;1.43;;;;;;;16.79;99.07;99646.81;5057649;28;20449;-69
2023/08/02 04:02:00;;;;;;;5.30;1.53;;;;;;;16.79;98.81;99646.81;5057871;28;20446;-69
2023/08/02 04:04:26;;;;;;;6.87;1.60;;;;;;;16.84;99.15;99648.44;5057323;28;20460;-69
2023/08/02 04:06:53;;;;;;;5.70;1.50;;;;;;;16.84;98.23;99648.44;5057629;28;20474;-69
2023/08/02 04:09:20;;;;;;;6.03;1.77;;;;;;;16.86;98.29;99646.13;5057124;28;20461;-69
2023/08/02 04:11:48;;;;;;;6.17;1.67;;;;;;;16.85;98.03;99645.31;5056825;28;20925;-69
2023/08/02 04:14:14;;;;;;;6.30;1.70;;;;;;;16.86;97.87;99646.91;5056661;28;20570;-69
2023/08/02 04:16:41;;;;;;;6.60;2.07;;;;;;;16.90;96.67;99647.75;5057396;28;20513;-69
2023/08/02 04:19:07;;;;;;;5.27;1.50;;;;;;;16.90;96.61;99650.47;5057355;28;20454;-69
2023/08/02 04:21:34;;;;;;;5.97;1.63;;;;;;;16.91;97.09;99648.56;5056981;28;20996;-69
2023/08/02 04:24:01;;;;;;;6.20;1.33;;;;;;;16.96;97.37;99655.66;5057550;28;20434;-69
2023/08/02 04:26:27;;;;;;;6.23;1.57;;;;;;;16.97;98.26;99659.97;5056934;28;20802;-69
2023/08/02 04:28:55;;;;;;;5.47;1.60;;;;;;;17.00;97.45;99653.75;5056773;28;20503;-69
2023/08/02 04:31:22;;;;;;;7.27;2.20;;;;;;;17.02;97.35;99659.66;5056484;28;20929;-69
2023/08/02 04:33:49;;;;;;;6.90;1.70;;;;;;;17.04;96.56;99657.34;5056450;28;20524;-69
2023/08/02 04:36:15;;;;;;;6.30;1.60;;;;;;;17.04;96.96;99657.34;5056574;28;20831;-69
2023/08/02 04:38:42;;;;;;;5.60;1.77;;;;;;;17.10;96.94;99650.41;5056962;28;20478;-69
2023/08/02 04:41:15;;;;;;;5.50;1.70;;;;;;;17.14;96.62;99654.00;5057146;28;20571;-68
2023/08/02 04:43:41;;;;;;;6.50;1.80;;;;;;;17.14;96.17;99651.25;5058959;28;20486;-68
2023/08/02 04:46:09;;;;;;;9.43;2.17;;;;;;;17.14;96.28;99646.56;5060102;28;20493;-68
2023/08/02 04:48:36;;;;;;;8.90;2.33;;;;;;;17.18;95.26;99648.56;5056290;28;20446;-68
2023/08/02 04:51:06;;;;;;;6.03;1.70;;;;;;;17.14;96.10;99652.03;5057349;28;20443;-68
2023/08/02 04:53:33;;;;;;;5.10;1.40;;;;;;;17.16;95.38;99648.94;5058711;28;20473;-69
2023/08/02 04:56:00;;;;;;;9.60;1.90;;;;;;;17.17;95.08;99647.75;5057422;28;20458;-68
2023/08/02 04:58:26;;;;;;;6.70;1.80;;;;;;;17.17;96.33;99650.50;5060251;28;20485;-68
2023/08/02 05:00:53;;;;;;;6.13;1.53;;;;;;;17.19;96.86;99650.16;5061259;28;20507;-68
2023/08/02 05:03:21;;;;;;;5.60;1.70;;;;;;;17.16;94.94;99643.47;5057414;28;20466;-68
2023/08/02 05:05:49;;;;;;;5.93;1.50;;;;;;;17.19;96.08;99633.75;5059616;28;20455;-68
2023/08/02 05:08:16;;;;;;;6.10;1.77;;;;;;;17.21;95.98;99634.16;5055629;28;20488;-69
2023/08/02 05:10:42;;;;;;;6.43;2.13;;;;;;;17.24;97.35;99634.19;5055937;28;20431;-69
2023/08/02 05:13:09;;;;;;;6.57;1.93;;;;;;;17.29;96.81;99631.13;5057093;28;20572;-68
2023/08/02 05:15:37;;;;;;;7.33;1.80;;;;;;;17.34;96.11;99632.75;5061420;28;20458;-71
2023/08/02 05:18:03;;;;;;;7.90;1.63;;;;;;;17.39;97.08;99644.19;5060203;28;20446;-70
2023/08/02 05:20:32;;;;;;;5.50;1.87;;;;;;;17.41;97.61;99638.34;5056557;28;20541;-69
2023/08/02 05:22:59;;;;;;;5.80;1.90;;;;;;;17.45;95.57;99632.94;5056299;28;20525;-69
2023/08/02 05:25:27;;;;;;;7.10;2.13;;;;;;;17.50;95.83;99627.91;5056239;28;21001;-69
2023/08/02 05:27:54;;;;;;;6.00;1.67;;;;;;;17.51;95.95;99632.22;5057182;28;20450;-69
2023/08/02 05:30:21;;;;;;;7.03;1.73;;;;;;;17.51;95.57;99632.22;5057086;28;20469;-69
2023/08/02 05:32:48;;;;;;;5.60;1.73;;;;;;;17.51;93.90;99629.47;5055457;28;20989;-69
2023/08/02 05:35:15;;;;;;;6.37;2.00;;;;;;;17.54;93.97;99620.53;5056244;28;20556;-69
2023/08/02 05:37:43;;;;;;;6.37;2.07;;;;;;;17.59;94.21;99628.41;5055612;28;20470;-69
2023/08/02 05:40:10;;;;;;;7.20;2.37;;;;;;;17.60;93.74;99623.72;5054526;28;20434;-69
2023/08/02 05:42:37;;;;;;;6.03;1.63;;;;;;;17.59;93.39;99619.41;5053460;28;20871;-69
2023/08/02 05:45:04;;;;;;;7.10;1.70;;;;;;;17.65;93.86;99626.91;5053382;28;20462;-71
2023/08/02 05:47:31;;;;;;;5.77;1.77;;;;;;;17.67;94.96;99637.53;5053590;28;20525;-68
2023/08/02 05:49:58;;;;;;;5.97;1.73;;;;;;;17.71;94.69;99637.53;5053325;28;20444;-67
2023/08/02 05:52:24;;;;;;;7.50;1.57;;;;;;;17.79;95.48;99639.25;5053364;28;20434;-68
2023/08/02 05:54:52;;;;;;;5.90;1.73;;;;;;;17.89;94.79;99644.09;5053254;28;20565;-68
2023/08/02 05:57:19;;;;;;;6.70;1.73;;;;;;;17.93;94.63;99641.38;5053273;28;20442;-68
2023/08/02 05:59:45;;;;;;;6.27;1.93;;;;;;;17.97;94.63;99644.94;5055111;28;20446;-69
2023/08/02 06:02:12;;;;;;;7.00;1.57;;;;;;;17.98;94.27;99633.63;5058267;28;20521;-68
2023/08/02 06:04:40;;;;;;;7.50;2.07;;;;;;;18.03;94.89;99627.81;5057959;28;20521;-68
2023/08/02 06:07:07;;;;;;;7.13;1.60;;;;;;;18.04;93.59;99620.38;5057472;28;20442;-68
2023/08/02 06:09:34;;;;;;;5.50;1.60;;;;;;;18.10;93.10;99635.31;5057255;28;20445;-68
2023/08/02 06:12:02;;;;;;;7.10;1.90;;;;;;;18.18;93.72;99628.75;5057432;28;20440;-68
2023/08/02 06:14:29;;;;;;;5.10;1.40;;;;;;;18.18;92.30;99639.69;5057102;28;20477;-67
2023/08/02 06:16:55;;;;;;;5.30;1.50;;;;;;;18.12;91.77;99633.00;5057267;28;20500;-68
2023/08/02 06:19:22;;;;;;;5.60;1.53;;;;;;;18.00;92.45;99628.53;5057579;28;20449;-68
2023/08/02 06:21:48;;;;;;;4.90;1.30;;;;;;;17.93;93.02;99631.22;5057089;28;20805;-68
2023/08/02 06:24:15;;;;;;;5.80;1.97;;;;;;;17.81;94.87;99626.78;5057151;28;20440;-68
2023/08/02 06:26:42;;;;;;;5.20;1.70;;;;;;;17.86;93.49;99622.91;5057065;28;20908;-69
2023/08/02 06:29:11;;;;;;;5.73;1.43;;;;;;;17.93;92.70;99624.94;5057122;28;20434;-68
2023/08/02 06:31:37;;;;;;;6.00;2.17;;;;;;;17.99;93.15;99628.94;5057025;28;20450;-68
2023/08/02 06:34:04;;;;;;;5.10;1.43;;;;;;;18.05;91.79;99624.69;5056738;28;20487;-68
2023/08/02 06:36:31;;;;;;;7.73;1.87;;;;;;;18.13;92.09;99634.56;5056865;28;20457;-68
2023/08/02 06:38:57;;;;;;;4.80;1.30;;;;;;;18.18;91.37;99634.22;5056663;28;21001;-68
2023/08/02 06:41:24;;;;;;;7.07;1.93;;;;;;;18.24;92.01;99621.78;5056735;28;20858;-68
2023/08/02 06:43:51;;;;;;;5.93;1.50;;;;;;;18.28;91.32;99619.03;5056427;28;20504;-71
2023/08/02 06:46:18;;;;;;;5.47;1.37;;;;;;;18.41;91.13;99626.63;5056292;28;20478;-68
2023/08/02 06:48:45;;;;;;;7.63;1.73;;;;;;;18.57;91.32;99631.06;5056615;28;20438;-71
2023/08/02 06:51:12;;;;;;;5.93;1.27;;;;;;;18.71;88.83;99624.94;5056322;28;20466;-71
2023/08/02 06:53:39;;;;;;;5.73;1.83;;;;;;;18.81;86.29;99608.56;5056665;28;20589;-69
2023/08/02 06:56:11;;;;;;;5.80;1.57;;;;;;;18.90;87.49;99610.97;5056182;28;20494;-68
2023/08/02 06:58:37;;;;;;;5.93;1.50;;;;;;;19.00;87.53;99610.28;5056199;28;20970;-69
2023/08/02 07:01:11;;;;;;;8.10;1.90;;;;;;;19.11;87.76;99604.84;5056400;28;20435;-68
2023/08/02 07:03:39;;;;;;;5.73;1.40;;;;;;;19.24;84.92;99600.63;5056777;28;20422;-69
2023/08/02 07:06:09;;;;;;;7.13;1.90;;;;;;;19.40;83.52;99595.63;5056231;28;20465;-69
2023/08/02 07:08:35;;;;;;;5.70;1.50;;;;;;;19.44;81.89;99592.91;5056188;28;20481;-69
2023/08/02 07:11:02;;;;;;;6.13;1.87;;;;;;;19.50;83.05;99585.06;5056010;28;20444;-68
2023/08/02 07:13:28;;;;;;;5.17;1.40;;;;;;;19.50;81.82;99585.06;5056067;28;20525;-69
2023/08/02 07:15:55;;;;;;;6.23;1.70;;;;;;;19.54;80.06;99581.16;5056088;28;20865;-69
2023/08/02 07:18:23;;;;;;;7.00;1.63;;;;;;;19.58;81.25;99578.44;5056512;28;20451;-69
2023/08/02 07:20:51;;;;;;;6.73;1.80;;;;;;;19.62;81.55;99584.75;5056553;28;20516;-69
2023/08/02 07:23:17;;;;;;;9.57;1.67;;;;;;;19.75;81.30;99586.00;5055901;28;20541;-69
2023/08/02 07:25:44;;;;;;;5.20;1.30;;;;;;;19.84;81.21;99583.66;5055918;28;20545;-69
2023/08/02 07:28:10;;;;;;;6.47;1.53;;;;;;;19.97;80.53;99577.81;5056380;28;20525;-69
2023/08/02 07:30:37;;;;;;;6.80;1.40;;;;;;;20.04;79.48;99581.34;5056187;28;20529;-68
2023/08/02 07:33:04;;;;;;;7.17;1.33;;;;;;;20.03;80.00;99582.53;5055969;28;20537;-68
2023/08/02 07:35:30;;;;;;;5.73;1.27;;;;;;;20.04;79.32;99584.09;5055435;28;21013;-69
2023/08/02 07:37:59;;;;;;;8.63;1.60;;;;;;;20.16;77.43;99580.19;5056150;28;20434;-69
2023/08/02 07:40:25;;;;;;;5.53;1.40;;;;;;;20.25;76.68;99586.09;5055814;28;20524;-69
2023/08/02 07:42:52;;;;;;;5.33;1.43;;;;;;;20.33;79.13;99575.91;5056087;28;20454;-69
2023/08/02 07:45:18;;;;;;;4.80;1.10;;;;;;;20.46;77.03;99584.56;5055656;28;20486;-68
2023/08/02 07:47:45;;;;;;;4.80;1.00;;;;;;;20.51;76.08;99584.19;5055599;28;20521;-68
2023/08/02 07:50:12;;;;;;;5.03;1.27;;;;;;;20.48;76.75;99574.75;5055460;28;20525;-68
2023/08/02 07:52:38;;;;;;;5.00;1.10;;;;;;;20.41;75.32;99581.00;5055450;28;20438;-68
2023/08/02 07:55:07;;;;;;;5.03;0.97;;;;;;;20.43;75.18;99572.34;5055211;28;20852;-70
2023/08/02 07:57:35;;;;;;;6.23;1.20;;;;;;;20.50;75.02;99580.66;5055168;28;20509;-72
2023/08/02 08:00:02;;;;;;;4.80;1.30;;;;;;;20.58;75.18;99578.66;5054920;28;20952;-69
2023/08/02 08:02:29;;;;;;;5.57;1.60;;;;;;;20.62;73.74;99579.47;5055273;28;20472;-69
2023/08/02 08:04:56;;;;;;;7.87;1.50;;;;;;;20.66;74.27;99578.28;5055300;28;20493;-69
2023/08/02 08:07:23;;;;;;;5.10;1.20;;;;;;;20.78;72.21;99587.31;5055617;28;20542;-69
2023/08/02 08:09:51;;;;;;;4.70;0.80;;;;;;;20.88;70.49;99579.03;5053900;22;20522;-69
2023/08/02 08:12:19;;;;;;;5.47;1.30;;;;;;;20.83;71.22;99584.94;5035427;28;20439;-68
2023/08/02 08:14:45;;;;;;;4.50;1.00;;;;;;;20.89;71.21;99579.81;5034512;28;20491;-69
2023/08/02 08:17:12;;;;;;;5.43;1.03;;;;;;;20.96;72.33;99588.09;5035209;28;20449;-68
2023/08/02 08:19:39;;;;;;;6.73;1.70;;;;;;;20.96;71.52;99588.09;5034769;28;20443;-69
2023/08/02 08:22:06;;;;;;;4.23;0.80;;;;;;;21.09;71.85;99582.94;5033873;28;20931;-68
2023/08/02 08:24:32;;;;;;;4.63;1.00;;;;;;;21.07;75.01;99593.56;5034477;28;20438;-68
2023/08/02 08:26:59;;;;;;;5.53;1.27;;;;;;;21.06;70.51;99580.97;5034575;28;21018;-68
2023/08/02 08:29:27;;;;;;;4.83;1.00;;;;;;;21.03;68.94;99579.00;5034775;28;20518;-69
2023/08/02 08:31:54;;;;;;;5.30;1.10;;;;;;;20.99;67.98;99584.56;5035226;28;20529;-69
2023/08/02 08:34:21;;;;;;;5.20;1.20;;;;;;;20.92;69.91;99568.81;5034353;28;21078;-70
2023/08/02 08:36:47;;;;;;;4.67;0.87;;;;;;;20.92;71.42;99566.06;5034695;28;20542;-69
2023/08/02 08:39:14;;;;;;;5.50;1.30;;;;;;;20.85;68.95;99560.59;5035014;28;20530;-71
2023/08/02 08:41:41;;;;;;;4.50;0.90;;;;;;;20.82;66.28;99564.13;5034860;28;20453;-71
2023/08/02 08:44:07;;;;;;;4.87;1.03;;;;;;;20.77;69.55;99547.22;5034804;28;20803;-70
2023/08/02 08:46:35;;;;;;;4.97;0.97;;;;;;;20.73;69.72;99555.47;5034126;28;20543;-71
2023/08/02 08:49:03;;;;;;;5.70;1.13;;;;;;;20.76;68.26;99540.94;5034086;28;20911;-71
2023/08/02 08:51:33;;;;;;;5.33;0.90;;;;;;;20.70;68.19;99531.50;5034292;28;20522;-71
2023/08/02 08:54:05;;;;;;;5.23;1.20;;;;;;;20.68;67.29;99533.88;5034558;28;20432;-71
2023/08/02 08:56:37;;;;;;;5.07;0.90;;;;;;;20.61;69.96;99534.66;5034193;28;20491;-71
2023/08/02 08:59:05;;;;;;;7.03;1.30;;;;;;;20.58;68.46;99531.91;5034201;28;20432;-71
2023/08/02 09:01:32;;;;;;;4.97;1.07;;;;;;;20.50;67.91;99528.38;5034149;28;20530;-71
2023/08/02 09:04:00;;;;;;;4.70;0.97;;;;;;;20.57;67.40;99527.56;5034110;28;20528;-71
2023/08/02 09:06:27;;;;;;;5.30;1.17;;;;;;;20.70;67.21;99517.72;5033885;28;20521;-71
2023/08/02 09:08:54;;;;;;;4.70;0.90;;;;;;;20.81;66.99;99515.75;5033620;28;20541;-71
2023/08/02 09:11:21;;;;;;;6.10;1.00;;;;;;;20.95;67.26;99512.19;5033290;28;20443;-71
2023/08/02 09:13:47;;;;;;;4.57;0.90;;;;;;;21.17;69.34;99521.16;5034017;28;20506;-71
2023/08/02 09:16:16;;;;;;;5.00;0.90;;;;;;;21.30;63.51;99508.53;5033529;28;21062;-71
2023/08/02 09:18:44;;;;;;;5.10;0.80;;;;;;;21.28;66.45;99504.59;5033918;28;20431;-70
2023/08/02 09:21:18;;;;;;;5.03;1.10;;;;;;;21.34;62.66;99508.53;5033650;28;20811;-70
2023/08/02 09:23:47;;;;;;;4.30;0.73;;;;;;;21.42;64.07;99499.81;5034242;28;20435;-71
2023/08/02 09:26:15;;;;;;;4.90;0.90;;;;;;;21.58;62.75;99504.88;5033737;28;20467;-71
2023/08/02 09:28:58;;;;;;;4.80;0.90;;;;;;;21.67;62.95;99498.91;5033843;28;20481;-71
2023/08/02 09:31:24;;;;;;;5.70;1.10;;;;;;;21.74;63.87;99503.63;5033546;28;20895;-71
2023/08/02 09:33:52;;;;;;;5.23;0.93;;;;;;;21.86;62.21;99498.38;5033697;28;20441;-71
2023/08/02 09:36:26;;;;;;;4.90;0.70;;;;;;;21.95;60.20;99497.94;5033904;28;20560;-71
2023/08/02 09:39:01;;;;;;;5.37;1.00;;;;;;;21.95;59.30;99488.88;5033755;28;20423;-71
2023/08/02 09:41:28;;;;;;;4.87;0.73;;;;;;;21.96;59.29;99487.69;5033724;28;20427;-71
2023/08/02 09:43:55;;;;;;;5.40;1.17;;;;;;;21.89;61.01;99492.06;5033601;28;20447;-71
2023/08/02 09:46:28;;;;;;;4.57;0.73;;;;;;;21.89;59.86;99483.81;5033306;28;20538;-71
2023/08/02 09:48:55;;;;;;;8.00;1.00;;;;;;;21.95;60.99;99477.84;5033872;28;20534;-71
2023/08/02 09:51:21;;;;;;;4.53;0.90;;;;;;;21.99;60.36;99478.63;5033856;28;20819;-71
2023/08/02 09:53:55;;;;;;;9.70;1.30;;;;;;;22.01;59.80;99473.50;5033484;28;20526;-71
2023/08/02 09:56:24;;;;;;;5.00;1.00;;;;;;;22.00;65.31;99467.19;5033797;28;20487;-70
2023/08/02 09:58:54;;;;;;;4.87;1.10;;;;;;;22.06;62.37;99462.81;5033107;28;20439;-71
2023/08/02 10:01:23;;;;;;;4.60;0.70;;;;;;;22.16;63.24;99459.19;5033187;28;20477;-70
2023/08/02 10:03:55;;;;;;;6.30;1.27;;;;;;;22.16;62.17;99466.69;5033466;28;20505;-71
2023/08/02 10:06:24;;;;;;;7.03;1.07;;;;;;;22.16;62.33;99459.19;5033028;28;20948;-71
2023/08/02 10:08:54;;;;;;;5.10;1.20;;;;;;;22.16;64.21;99450.91;5033449;28;20458;-71
2023/08/02 10:11:24;;;;;;;4.60;0.90;;;;;;;22.22;64.83;99448.50;5033038;28;20478;-71
2023/08/02 10:13:54;;;;;;;5.60;1.13;;;;;;;22.37;64.47;99438.91;5033672;28;20478;-71
2023/08/02 10:16:24;;;;;;;4.90;1.07;;;;;;;22.53;63.22;99432.81;5033265;28;20487;-71
2023/08/02 10:18:52;;;;;;;4.67;0.93;;;;;;;22.56;60.77;99445.81;5033684;28;20531;-71
2023/08/02 10:21:22;;;;;;;5.20;1.10;;;;;;;22.48;61.25;99440.78;5033423;28;20443;-71
2023/08/02 10:23:50;;;;;;;4.73;1.00;;;;;;;22.46;62.22;99448.69;5033454;28;20451;-73
2023/08/02 10:26:18;;;;;;;5.27;1.00;;;;;;;22.45;64.18;99430.56;5033166;28;20551;-74
2023/08/02 10:28:46;;;;;;;6.43;0.90;;;;;;;22.54;63.94;99434.41;5033196;28;20478;-73
2023/08/02 10:31:13;;;;;;;4.57;0.80;;;;;;;22.51;64.33;99446.25;5033435;28;20450;-75
2023/08/02 10:33:40;;;;;;;4.43;0.93;;;;;;;22.50;64.53;99430.13;5033195;28;20939;-69
2023/08/02 10:36:08;;;;;;;4.70;0.80;;;;;;;22.67;64.73;99437.44;5032580;28;21029;-70
2023/08/02 10:38:54;;;;;;;4.60;0.87;;;;;;;23.03;65.95;99426.00;5033330;28;20525;-69
2023/08/02 10:41:22;;;;;;;4.80;0.93;;;;;;;23.27;62.52;99432.38;5033469;28;20427;-71
2023/08/02 10:44:15;;;;;;;4.70;0.90;;;;;;;23.48;62.53;99420.25;5033294;28;20435;-70
2023/08/02 10:46:42;;;;;;;4.67;0.90;;;;;;;23.63;60.85;99405.78;5035632;28;20538;-71
2023/08/02 10:49:38;;;;;;;6.83;1.00;;;;;;;23.72;59.23;99404.50;5036738;28;20447;-69
2023/08/02 10:52:32;;;;;;;4.57;0.90;;;;;;;23.68;62.20;99401.78;5036953;28;20423;-68
2023/08/02 10:55:08;;;;;;;4.70;0.80;;;;;;;23.79;62.49;99399.66;5001545;28;20514;-69
2023/08/02 10:57:34;;;;;;;4.40;0.73;;;;;;;23.74;61.22;99411.19;5036526;28;20803;-69
2023/08/02 11:00:14;;;;;;;4.80;1.10;;;;;;;23.53;62.54;99405.97;5036457;28;20811;-69
2023/08/02 11:02:45;;;;;;;4.60;0.90;;;;;;;23.28;62.01;99398.00;5036559;28;20502;-68
2023/08/02 11:05:12;;;;;;;4.97;0.67;;;;;;;23.07;62.98;99407.41;5036218;28;20462;-70
2023/08/02 11:07:39;;;;;;;4.30;0.80;;;;;;;22.97;63.30;99391.72;5036392;28;20497;-69
2023/08/02 11:10:06;;;;;;;4.40;0.70;;;;;;;22.86;65.14;99383.56;5035808;28;20465;-69
2023/08/02 11:12:34;;;;;;;4.50;0.90;;;;;;;22.77;66.94;99383.28;5036337;28;20523;-69
2023/08/02 11:15:15;;;;;;;4.93;1.00;;;;;;;22.72;65.01;99379.00;5036130;28;20536;-69
2023/08/02 11:17:41;;;;;;;4.60;0.87;;;;;;;22.67;65.30;99371.94;5035960;28;20922;-69
2023/08/02 11:20:09;;;;;;;4.97;1.07;;;;;;;22.70;66.38;99362.06;5035816;28;20811;-69
2023/08/02 11:22:37;;;;;;;5.30;1.10;;;;;;;22.70;66.67;99352.97;5035807;28;20973;-69
2023/08/02 11:25:06;;;;;;;5.60;1.40;;;;;;;22.68;68.37;99350.66;5035589;28;20462;-69
2023/08/02 11:27:33;;;;;;;4.57;0.90;;;;;;;22.70;67.80;99348.25;5035588;28;20792;-69
2023/08/02 11:30:01;;;;;;;4.83;1.13;;;;;;;22.70;67.33;99328.91;5035754;28;20978;-68
2023/08/02 11:32:30;;;;;;;4.73;1.20;;;;;;;22.66;66.48;99334.47;5035839;28;20522;-69
2023/08/02 11:34:56;;;;;;;5.10;1.10;;;;;;;22.68;67.06;99328.56;5035649;28;20491;-69
2023/08/02 11:37:23;;;;;;;4.70;1.13;;;;;;;22.70;68.76;99331.69;5035842;28;20445;-69